sensor_id;sensor_type;location;lat;lon;timestamp;P1;durP1;ratioP1;P2;durP2;ratioP2
59336;SDS011;45115;52.002;4.686;2023-07-31T00:00:07;23.95;;;7.68;;
59336;SDS011;45115;52.002;4.686;2023-07-31T00:02:35;23.25;;;7.05;;
59336;SDS011;45115;52.002;4.686;2023-07-31T00:05:02;26.63;;;7.65;;
59336;SDS011;45115;52.002;4.686;2023-07-31T00:07:29;24.73;;;7.80;;
59336;SDS011;45115;52.002;4.686;2023-07-31T00:09:55;21.58;;;6.72;;
59336;SDS011;45115;52.002;4.686;2023-07-31T00:12:24;19.20;;;6.15;;
59336;SDS011;45115;52.002;4.686;2023-07-31T00:14:51;28.58;;;9.13;;
59336;SDS011;45115;52.002;4.686;2023-07-31T00:17:17;24.75;;;7.00;;
59336;SDS011;45115;52.002;4.686;2023-07-31T00:19:44;25.58;;;7.50;;
59336;SDS011;45115;52.002;4.686;2023-07-31T00:22:11;22.95;;;7.15;;
59336;SDS011;45115;52.002;4.686;2023-07-31T00:24:38;22.15;;;7.60;;
59336;SDS011;45115;52.002;4.686;2023-07-31T00:27:04;23.80;;;6.65;;
59336;SDS011;45115;52.002;4.686;2023-07-31T00:29:33;23.40;;;7.15;;
59336;SDS011;45115;52.002;4.686;2023-07-31T00:31:59;19.60;;;6.78;;
59336;SDS011;45115;52.002;4.686;2023-07-31T00:34:26;28.65;;;7.72;;
59336;SDS011;45115;52.002;4.686;2023-07-31T00:36:52;23.58;;;7.40;;
59336;SDS011;45115;52.002;4.686;2023-07-31T00:39:19;20.50;;;7.07;;
59336;SDS011;45115;52.002;4.686;2023-07-31T00:41:46;27.35;;;7.57;;
59336;SDS011;45115;52.002;4.686;2023-07-31T00:44:13;19.67;;;6.75;;
59336;SDS011;45115;52.002;4.686;2023-07-31T00:46:41;19.98;;;7.30;;
59336;SDS011;45115;52.002;4.686;2023-07-31T00:49:07;25.00;;;7.68;;
59336;SDS011;45115;52.002;4.686;2023-07-31T00:51:34;25.35;;;7.18;;
59336;SDS011;45115;52.002;4.686;2023-07-31T00:54:01;24.63;;;7.90;;
59336;SDS011;45115;52.002;4.686;2023-07-31T00:56:29;23.45;;;7.68;;
59336;SDS011;45115;52.002;4.686;2023-07-31T00:58:57;24.33;;;7.28;;
59336;SDS011;45115;52.002;4.686;2023-07-31T01:01:23;26.27;;;9.43;;
59336;SDS011;45115;52.002;4.686;2023-07-31T01:03:51;28.30;;;8.40;;
59336;SDS011;45115;52.002;4.686;2023-07-31T01:06:22;26.90;;;7.85;;
59336;SDS011;45115;52.002;4.686;2023-07-31T01:08:58;27.52;;;8.93;;
59336;SDS011;45115;52.002;4.686;2023-07-31T01:11:29;19.33;;;7.25;;
59336;SDS011;45115;52.002;4.686;2023-07-31T01:13:57;16.77;;;6.32;;
59336;SDS011;45115;52.002;4.686;2023-07-31T01:16:24;17.05;;;5.95;;
59336;SDS011;45115;52.002;4.686;2023-07-31T01:18:52;18.50;;;5.32;;
59336;SDS011;45115;52.002;4.686;2023-07-31T01:21:23;16.48;;;5.53;;
59336;SDS011;45115;52.002;4.686;2023-07-31T01:24:08;19.30;;;5.20;;
59336;SDS011;45115;52.002;4.686;2023-07-31T01:26:49;17.30;;;5.15;;
59336;SDS011;45115;52.002;4.686;2023-07-31T01:29:23;21.20;;;6.30;;
59336;SDS011;45115;52.002;4.686;2023-07-31T01:31:55;19.55;;;6.72;;
59336;SDS011;45115;52.002;4.686;2023-07-31T01:34:24;18.23;;;6.10;;
59336;SDS011;45115;52.002;4.686;2023-07-31T01:36:52;18.35;;;6.25;;
59336;SDS011;45115;52.002;4.686;2023-07-31T01:39:19;19.85;;;6.22;;
59336;SDS011;45115;52.002;4.686;2023-07-31T01:41:46;21.17;;;7.07;;
59336;SDS011;45115;52.002;4.686;2023-07-31T01:44:14;22.45;;;7.78;;
59336;SDS011;45115;52.002;4.686;2023-07-31T01:46:41;22.80;;;7.20;;
59336;SDS011;45115;52.002;4.686;2023-07-31T01:49:08;22.08;;;7.20;;
59336;SDS011;45115;52.002;4.686;2023-07-31T01:51:34;20.85;;;7.15;;
59336;SDS011;45115;52.002;4.686;2023-07-31T01:54:01;20.48;;;7.22;;
59336;SDS011;45115;52.002;4.686;2023-07-31T01:56:28;23.13;;;7.53;;
59336;SDS011;45115;52.002;4.686;2023-07-31T01:58:55;23.40;;;7.47;;
59336;SDS011;45115;52.002;4.686;2023-07-31T02:01:23;20.05;;;7.00;;
59336;SDS011;45115;52.002;4.686;2023-07-31T02:03:50;28.75;;;7.47;;
59336;SDS011;45115;52.002;4.686;2023-07-31T02:06:16;19.67;;;6.60;;
59336;SDS011;45115;52.002;4.686;2023-07-31T02:08:43;25.27;;;6.93;;
59336;SDS011;45115;52.002;4.686;2023-07-31T02:11:12;25.88;;;7.40;;
59336;SDS011;45115;52.002;4.686;2023-07-31T02:13:38;22.48;;;7.13;;
59336;SDS011;45115;52.002;4.686;2023-07-31T02:16:05;26.75;;;8.65;;
59336;SDS011;45115;52.002;4.686;2023-07-31T02:18:33;25.20;;;7.45;;
59336;SDS011;45115;52.002;4.686;2023-07-31T02:21:01;24.27;;;7.88;;
59336;SDS011;45115;52.002;4.686;2023-07-31T02:23:27;31.48;;;8.57;;
59336;SDS011;45115;52.002;4.686;2023-07-31T02:25:54;24.55;;;8.07;;
59336;SDS011;45115;52.002;4.686;2023-07-31T02:28:20;22.48;;;7.75;;
59336;SDS011;45115;52.002;4.686;2023-07-31T02:30:47;26.17;;;8.55;;
59336;SDS011;45115;52.002;4.686;2023-07-31T02:33:16;23.00;;;7.68;;
59336;SDS011;45115;52.002;4.686;2023-07-31T02:35:44;24.85;;;7.68;;
59336;SDS011;45115;52.002;4.686;2023-07-31T02:38:10;21.15;;;7.50;;
59336;SDS011;45115;52.002;4.686;2023-07-31T02:40:37;17.33;;;6.25;;
59336;SDS011;45115;52.002;4.686;2023-07-31T02:43:06;21.20;;;6.25;;
59336;SDS011;45115;52.002;4.686;2023-07-31T02:45:32;20.10;;;6.32;;
59336;SDS011;45115;52.002;4.686;2023-07-31T02:47:59;21.38;;;6.20;;
59336;SDS011;45115;52.002;4.686;2023-07-31T02:50:26;20.00;;;6.85;;
59336;SDS011;45115;52.002;4.686;2023-07-31T02:52:55;21.15;;;6.68;;
59336;SDS011;45115;52.002;4.686;2023-07-31T02:55:21;20.50;;;6.50;;
59336;SDS011;45115;52.002;4.686;2023-07-31T02:57:48;21.13;;;6.93;;
59336;SDS011;45115;52.002;4.686;2023-07-31T03:00:15;19.90;;;7.10;;
59336;SDS011;45115;52.002;4.686;2023-07-31T03:02:41;18.52;;;6.20;;
59336;SDS011;45115;52.002;4.686;2023-07-31T03:05:08;17.67;;;6.43;;
59336;SDS011;45115;52.002;4.686;2023-07-31T03:07:35;17.52;;;6.45;;
59336;SDS011;45115;52.002;4.686;2023-07-31T03:10:02;20.13;;;6.97;;
59336;SDS011;45115;52.002;4.686;2023-07-31T03:12:29;22.27;;;7.80;;
59336;SDS011;45115;52.002;4.686;2023-07-31T03:14:55;18.70;;;6.05;;
59336;SDS011;45115;52.002;4.686;2023-07-31T03:17:22;18.50;;;7.03;;
59336;SDS011;45115;52.002;4.686;2023-07-31T03:19:49;17.75;;;6.15;;
59336;SDS011;45115;52.002;4.686;2023-07-31T03:22:16;19.85;;;6.47;;
59336;SDS011;45115;52.002;4.686;2023-07-31T03:24:42;17.77;;;6.68;;
59336;SDS011;45115;52.002;4.686;2023-07-31T03:27:10;24.38;;;7.15;;
59336;SDS011;45115;52.002;4.686;2023-07-31T03:29:37;20.58;;;6.05;;
59336;SDS011;45115;52.002;4.686;2023-07-31T03:32:04;19.02;;;6.43;;
59336;SDS011;45115;52.002;4.686;2023-07-31T03:34:31;20.63;;;6.57;;
59336;SDS011;45115;52.002;4.686;2023-07-31T03:36:58;17.60;;;6.55;;
59336;SDS011;45115;52.002;4.686;2023-07-31T03:39:24;23.25;;;6.95;;
59336;SDS011;45115;52.002;4.686;2023-07-31T03:41:51;19.38;;;6.43;;
59336;SDS011;45115;52.002;4.686;2023-07-31T03:44:19;22.83;;;8.07;;
59336;SDS011;45115;52.002;4.686;2023-07-31T03:46:46;21.23;;;7.03;;
59336;SDS011;45115;52.002;4.686;2023-07-31T03:49:13;20.75;;;6.70;;
59336;SDS011;45115;52.002;4.686;2023-07-31T03:51:39;17.05;;;6.07;;
59336;SDS011;45115;52.002;4.686;2023-07-31T03:54:06;15.77;;;6.38;;
59336;SDS011;45115;52.002;4.686;2023-07-31T03:56:33;17.65;;;7.10;;
59336;SDS011;45115;52.002;4.686;2023-07-31T03:59:00;16.65;;;6.20;;
59336;SDS011;45115;52.002;4.686;2023-07-31T04:01:28;18.13;;;6.97;;
59336;SDS011;45115;52.002;4.686;2023-07-31T04:03:55;21.77;;;7.40;;
59336;SDS011;45115;52.002;4.686;2023-07-31T04:06:21;17.98;;;7.22;;
59336;SDS011;45115;52.002;4.686;2023-07-31T04:08:48;19.65;;;6.78;;
59336;SDS011;45115;52.002;4.686;2023-07-31T04:11:15;17.23;;;7.10;;
59336;SDS011;45115;52.002;4.686;2023-07-31T04:13:42;17.38;;;6.55;;
59336;SDS011;45115;52.002;4.686;2023-07-31T04:16:08;19.70;;;6.28;;
59336;SDS011;45115;52.002;4.686;2023-07-31T04:18:37;20.30;;;6.25;;
59336;SDS011;45115;52.002;4.686;2023-07-31T04:21:03;15.75;;;5.70;;
59336;SDS011;45115;52.002;4.686;2023-07-31T04:23:30;16.10;;;5.75;;
59336;SDS011;45115;52.002;4.686;2023-07-31T04:25:57;19.65;;;6.20;;
59336;SDS011;45115;52.002;4.686;2023-07-31T04:28:23;15.40;;;5.80;;
59336;SDS011;45115;52.002;4.686;2023-07-31T04:30:51;16.45;;;5.63;;
59336;SDS011;45115;52.002;4.686;2023-07-31T04:33:17;13.88;;;4.82;;
59336;SDS011;45115;52.002;4.686;2023-07-31T04:35:49;13.63;;;4.95;;
59336;SDS011;45115;52.002;4.686;2023-07-31T04:38:18;14.10;;;5.18;;
59336;SDS011;45115;52.002;4.686;2023-07-31T04:40:44;12.20;;;5.63;;
59336;SDS011;45115;52.002;4.686;2023-07-31T04:43:11;10.52;;;4.38;;
59336;SDS011;45115;52.002;4.686;2023-07-31T04:45:38;12.65;;;4.65;;
59336;SDS011;45115;52.002;4.686;2023-07-31T04:48:04;13.52;;;5.07;;
59336;SDS011;45115;52.002;4.686;2023-07-31T04:50:31;12.68;;;4.70;;
59336;SDS011;45115;52.002;4.686;2023-07-31T04:52:59;12.35;;;4.80;;
59336;SDS011;45115;52.002;4.686;2023-07-31T04:55:26;13.85;;;5.20;;
59336;SDS011;45115;52.002;4.686;2023-07-31T04:57:52;10.63;;;4.90;;
59336;SDS011;45115;52.002;4.686;2023-07-31T05:00:19;10.27;;;4.43;;
59336;SDS011;45115;52.002;4.686;2023-07-31T05:02:46;12.23;;;5.35;;
59336;SDS011;45115;52.002;4.686;2023-07-31T05:05:13;13.60;;;5.30;;
59336;SDS011;45115;52.002;4.686;2023-07-31T05:07:40;11.48;;;5.25;;
59336;SDS011;45115;52.002;4.686;2023-07-31T05:10:08;14.23;;;5.05;;
59336;SDS011;45115;52.002;4.686;2023-07-31T05:12:35;14.82;;;5.18;;
59336;SDS011;45115;52.002;4.686;2023-07-31T05:15:02;10.40;;;5.00;;
59336;SDS011;45115;52.002;4.686;2023-07-31T05:17:29;10.52;;;4.72;;
59336;SDS011;45115;52.002;4.686;2023-07-31T05:19:55;14.77;;;5.15;;
59336;SDS011;45115;52.002;4.686;2023-07-31T05:22:22;14.02;;;4.38;;
59336;SDS011;45115;52.002;4.686;2023-07-31T05:24:58;9.93;;;4.15;;
59336;SDS011;45115;52.002;4.686;2023-07-31T05:27:27;11.45;;;4.03;;
59336;SDS011;45115;52.002;4.686;2023-07-31T05:29:54;10.43;;;4.30;;
59336;SDS011;45115;52.002;4.686;2023-07-31T05:32:20;12.27;;;4.28;;
59336;SDS011;45115;52.002;4.686;2023-07-31T05:34:47;7.53;;;3.65;;
59336;SDS011;45115;52.002;4.686;2023-07-31T05:37:14;9.00;;;3.70;;
59336;SDS011;45115;52.002;4.686;2023-07-31T05:39:40;9.88;;;4.30;;
59336;SDS011;45115;52.002;4.686;2023-07-31T05:42:13;10.27;;;4.55;;
59336;SDS011;45115;52.002;4.686;2023-07-31T05:44:41;6.20;;;3.58;;
59336;SDS011;45115;52.002;4.686;2023-07-31T05:47:08;8.65;;;4.20;;
59336;SDS011;45115;52.002;4.686;2023-07-31T05:49:35;9.80;;;3.92;;
59336;SDS011;45115;52.002;4.686;2023-07-31T05:52:02;9.13;;;4.20;;
59336;SDS011;45115;52.002;4.686;2023-07-31T05:54:32;8.88;;;4.03;;
59336;SDS011;45115;52.002;4.686;2023-07-31T05:56:59;7.88;;;3.83;;
59336;SDS011;45115;52.002;4.686;2023-07-31T05:59:25;8.50;;;3.67;;
59336;SDS011;45115;52.002;4.686;2023-07-31T06:02:00;6.85;;;3.50;;
59336;SDS011;45115;52.002;4.686;2023-07-31T06:04:28;6.68;;;3.75;;
59336;SDS011;45115;52.002;4.686;2023-07-31T06:06:54;7.65;;;4.20;;
59336;SDS011;45115;52.002;4.686;2023-07-31T06:09:21;8.85;;;3.85;;
59336;SDS011;45115;52.002;4.686;2023-07-31T06:11:48;7.30;;;3.53;;
59336;SDS011;45115;52.002;4.686;2023-07-31T06:14:14;6.97;;;3.88;;
59336;SDS011;45115;52.002;4.686;2023-07-31T06:16:41;10.45;;;4.20;;
59336;SDS011;45115;52.002;4.686;2023-07-31T06:19:10;7.88;;;4.60;;
59336;SDS011;45115;52.002;4.686;2023-07-31T06:21:38;8.02;;;3.95;;
59336;SDS011;45115;52.002;4.686;2023-07-31T06:24:07;7.15;;;3.72;;
59336;SDS011;45115;52.002;4.686;2023-07-31T06:26:34;8.13;;;4.00;;
59336;SDS011;45115;52.002;4.686;2023-07-31T06:29:01;8.45;;;3.88;;
59336;SDS011;45115;52.002;4.686;2023-07-31T06:31:27;6.40;;;3.50;;
59336;SDS011;45115;52.002;4.686;2023-07-31T06:33:54;6.57;;;3.22;;
59336;SDS011;45115;52.002;4.686;2023-07-31T06:36:22;6.85;;;3.25;;
59336;SDS011;45115;52.002;4.686;2023-07-31T06:38:49;6.20;;;3.35;;
59336;SDS011;45115;52.002;4.686;2023-07-31T06:41:16;6.30;;;3.15;;
59336;SDS011;45115;52.002;4.686;2023-07-31T06:43:42;5.22;;;2.90;;
59336;SDS011;45115;52.002;4.686;2023-07-31T06:46:09;6.85;;;3.40;;
59336;SDS011;45115;52.002;4.686;2023-07-31T06:48:36;6.63;;;3.25;;
59336;SDS011;45115;52.002;4.686;2023-07-31T06:51:03;5.40;;;3.10;;
59336;SDS011;45115;52.002;4.686;2023-07-31T06:53:31;7.15;;;3.53;;
59336;SDS011;45115;52.002;4.686;2023-07-31T06:55:57;3.67;;;2.53;;
59336;SDS011;45115;52.002;4.686;2023-07-31T06:58:24;3.33;;;2.60;;
59336;SDS011;45115;52.002;4.686;2023-07-31T07:00:51;4.70;;;2.70;;
59336;SDS011;45115;52.002;4.686;2023-07-31T07:03:18;5.15;;;2.95;;
59336;SDS011;45115;52.002;4.686;2023-07-31T07:05:45;4.60;;;2.42;;
59336;SDS011;45115;52.002;4.686;2023-07-31T07:08:12;5.22;;;2.70;;
59336;SDS011;45115;52.002;4.686;2023-07-31T07:10:40;4.72;;;2.70;;
59336;SDS011;45115;52.002;4.686;2023-07-31T07:13:06;4.95;;;2.55;;
59336;SDS011;45115;52.002;4.686;2023-07-31T07:15:33;6.95;;;3.25;;
59336;SDS011;45115;52.002;4.686;2023-07-31T07:18:00;4.50;;;2.80;;
59336;SDS011;45115;52.002;4.686;2023-07-31T07:20:26;6.03;;;2.72;;
59336;SDS011;45115;52.002;4.686;2023-07-31T07:22:53;3.97;;;2.03;;
59336;SDS011;45115;52.002;4.686;2023-07-31T07:25:20;3.13;;;2.58;;
59336;SDS011;45115;52.002;4.686;2023-07-31T07:27:48;2.30;;;2.10;;
59336;SDS011;45115;52.002;4.686;2023-07-31T07:30:14;4.43;;;2.50;;
59336;SDS011;45115;52.002;4.686;2023-07-31T07:32:42;3.13;;;2.05;;
59336;SDS011;45115;52.002;4.686;2023-07-31T07:35:11;2.33;;;2.05;;
59336;SDS011;45115;52.002;4.686;2023-07-31T07:37:38;4.43;;;2.45;;
59336;SDS011;45115;52.002;4.686;2023-07-31T07:40:05;2.45;;;2.20;;
59336;SDS011;45115;52.002;4.686;2023-07-31T07:42:33;2.55;;;2.30;;
59336;SDS011;45115;52.002;4.686;2023-07-31T07:45:01;2.60;;;2.00;;
59336;SDS011;45115;52.002;4.686;2023-07-31T07:47:28;2.95;;;1.98;;
59336;SDS011;45115;52.002;4.686;2023-07-31T07:49:55;2.20;;;1.80;;
59336;SDS011;45115;52.002;4.686;2023-07-31T07:52:21;2.83;;;2.08;;
59336;SDS011;45115;52.002;4.686;2023-07-31T07:54:48;2.92;;;1.95;;
59336;SDS011;45115;52.002;4.686;2023-07-31T07:57:15;2.92;;;1.80;;
59336;SDS011;45115;52.002;4.686;2023-07-31T07:59:42;2.53;;;1.80;;
59336;SDS011;45115;52.002;4.686;2023-07-31T08:02:10;3.58;;;1.90;;
59336;SDS011;45115;52.002;4.686;2023-07-31T08:04:36;3.40;;;1.75;;
59336;SDS011;45115;52.002;4.686;2023-07-31T08:07:03;2.53;;;1.80;;
59336;SDS011;45115;52.002;4.686;2023-07-31T08:09:30;2.05;;;1.45;;
59336;SDS011;45115;52.002;4.686;2023-07-31T08:11:57;2.97;;;1.50;;
59336;SDS011;45115;52.002;4.686;2023-07-31T08:14:27;2.00;;;1.88;;
59336;SDS011;45115;52.002;4.686;2023-07-31T08:16:54;1.40;;;1.30;;
59336;SDS011;45115;52.002;4.686;2023-07-31T08:19:22;1.25;;;1.17;;
59336;SDS011;45115;52.002;4.686;2023-07-31T08:21:48;2.47;;;1.40;;
59336;SDS011;45115;52.002;4.686;2023-07-31T08:24:15;3.05;;;1.38;;
59336;SDS011;45115;52.002;4.686;2023-07-31T08:26:42;1.92;;;1.25;;
59336;SDS011;45115;52.002;4.686;2023-07-31T08:29:09;2.13;;;1.40;;
59336;SDS011;45115;52.002;4.686;2023-07-31T08:31:35;1.10;;;1.00;;
59336;SDS011;45115;52.002;4.686;2023-07-31T08:34:02;2.47;;;1.48;;
59336;SDS011;45115;52.002;4.686;2023-07-31T08:36:30;4.03;;;1.35;;
59336;SDS011;45115;52.002;4.686;2023-07-31T08:38:57;0.93;;;0.93;;
59336;SDS011;45115;52.002;4.686;2023-07-31T08:41:23;1.48;;;1.00;;
59336;SDS011;45115;52.002;4.686;2023-07-31T08:43:50;6.55;;;3.30;;
59336;SDS011;45115;52.002;4.686;2023-07-31T08:46:18;2.67;;;2.08;;
59336;SDS011;45115;52.002;4.686;2023-07-31T08:48:46;3.15;;;1.30;;
59336;SDS011;45115;52.002;4.686;2023-07-31T08:51:13;1.25;;;0.93;;
59336;SDS011;45115;52.002;4.686;2023-07-31T08:53:42;1.33;;;1.23;;
59336;SDS011;45115;52.002;4.686;2023-07-31T08:56:08;2.83;;;1.17;;
59336;SDS011;45115;52.002;4.686;2023-07-31T08:58:35;2.13;;;1.48;;
59336;SDS011;45115;52.002;4.686;2023-07-31T09:01:04;1.20;;;1.10;;
59336;SDS011;45115;52.002;4.686;2023-07-31T09:03:33;1.00;;;0.90;;
59336;SDS011;45115;52.002;4.686;2023-07-31T09:06:02;3.33;;;1.38;;
59336;SDS011;45115;52.002;4.686;2023-07-31T09:08:31;3.70;;;1.40;;
59336;SDS011;45115;52.002;4.686;2023-07-31T09:11:00;2.10;;;1.20;;
59336;SDS011;45115;52.002;4.686;2023-07-31T09:13:29;4.00;;;1.60;;
59336;SDS011;45115;52.002;4.686;2023-07-31T09:15:56;2.35;;;1.20;;
59336;SDS011;45115;52.002;4.686;2023-07-31T09:18:23;1.83;;;1.40;;
59336;SDS011;45115;52.002;4.686;2023-07-31T09:21:00;3.63;;;1.70;;
59336;SDS011;45115;52.002;4.686;2023-07-31T09:23:27;2.20;;;1.67;;
59336;SDS011;45115;52.002;4.686;2023-07-31T09:26:08;2.20;;;2.00;;
59336;SDS011;45115;52.002;4.686;2023-07-31T09:28:34;3.85;;;2.30;;
59336;SDS011;45115;52.002;4.686;2023-07-31T09:31:01;2.90;;;2.53;;
59336;SDS011;45115;52.002;4.686;2023-07-31T09:33:28;4.47;;;2.50;;
59336;SDS011;45115;52.002;4.686;2023-07-31T09:35:56;4.25;;;2.75;;
59336;SDS011;45115;52.002;4.686;2023-07-31T09:38:25;2.33;;;2.13;;
59336;SDS011;45115;52.002;4.686;2023-07-31T09:40:51;3.85;;;2.13;;
59336;SDS011;45115;52.002;4.686;2023-07-31T09:43:20;3.45;;;2.58;;
59336;SDS011;45115;52.002;4.686;2023-07-31T09:45:48;3.45;;;2.20;;
59336;SDS011;45115;52.002;4.686;2023-07-31T09:48:19;3.83;;;2.75;;
59336;SDS011;45115;52.002;4.686;2023-07-31T09:50:47;5.53;;;2.67;;
59336;SDS011;45115;52.002;4.686;2023-07-31T09:53:14;4.47;;;2.70;;
59336;SDS011;45115;52.002;4.686;2023-07-31T09:55:43;5.07;;;3.10;;
59336;SDS011;45115;52.002;4.686;2023-07-31T09:58:10;4.82;;;3.08;;
59336;SDS011;45115;52.002;4.686;2023-07-31T10:00:39;5.97;;;2.78;;
59336;SDS011;45115;52.002;4.686;2023-07-31T10:03:06;4.85;;;2.60;;
59336;SDS011;45115;52.002;4.686;2023-07-31T10:05:35;4.30;;;2.70;;
59336;SDS011;45115;52.002;4.686;2023-07-31T10:08:04;5.88;;;2.70;;
59336;SDS011;45115;52.002;4.686;2023-07-31T10:10:33;4.28;;;2.97;;
59336;SDS011;45115;52.002;4.686;2023-07-31T10:13:02;3.30;;;2.53;;
59336;SDS011;45115;52.002;4.686;2023-07-31T10:15:31;8.75;;;3.40;;
59336;SDS011;45115;52.002;4.686;2023-07-31T10:18:00;5.93;;;2.88;;
59336;SDS011;45115;52.002;4.686;2023-07-31T10:20:27;5.85;;;2.70;;
59336;SDS011;45115;52.002;4.686;2023-07-31T10:22:55;3.42;;;2.30;;
59336;SDS011;45115;52.002;4.686;2023-07-31T10:25:24;4.13;;;2.58;;
59336;SDS011;45115;52.002;4.686;2023-07-31T10:27:52;3.30;;;2.50;;
59336;SDS011;45115;52.002;4.686;2023-07-31T10:30:22;4.28;;;2.55;;
59336;SDS011;45115;52.002;4.686;2023-07-31T10:32:53;4.63;;;2.88;;
59336;SDS011;45115;52.002;4.686;2023-07-31T10:35:21;7.07;;;3.30;;
59336;SDS011;45115;52.002;4.686;2023-07-31T10:37:48;5.90;;;3.67;;
59336;SDS011;45115;52.002;4.686;2023-07-31T10:40:15;6.50;;;3.40;;
59336;SDS011;45115;52.002;4.686;2023-07-31T10:42:45;6.53;;;2.90;;
59336;SDS011;45115;52.002;4.686;2023-07-31T10:45:25;9.07;;;3.35;;
59336;SDS011;45115;52.002;4.686;2023-07-31T10:47:58;7.32;;;3.92;;
59336;SDS011;45115;52.002;4.686;2023-07-31T10:50:28;7.10;;;3.58;;
59336;SDS011;45115;52.002;4.686;2023-07-31T10:52:57;10.15;;;3.60;;
59336;SDS011;45115;52.002;4.686;2023-07-31T10:55:27;8.73;;;4.15;;
59336;SDS011;45115;52.002;4.686;2023-07-31T10:57:55;7.00;;;3.90;;
59336;SDS011;45115;52.002;4.686;2023-07-31T11:00:24;8.00;;;3.95;;
59336;SDS011;45115;52.002;4.686;2023-07-31T11:02:59;6.68;;;3.78;;
59336;SDS011;45115;52.002;4.686;2023-07-31T11:08:19;9.05;;;3.65;;
59336;SDS011;45115;52.002;4.686;2023-07-31T11:10:49;8.98;;;3.75;;
59336;SDS011;45115;52.002;4.686;2023-07-31T11:13:17;7.32;;;3.80;;
59336;SDS011;45115;52.002;4.686;2023-07-31T11:15:43;8.52;;;4.20;;
59336;SDS011;45115;52.002;4.686;2023-07-31T11:18:11;8.40;;;4.45;;
59336;SDS011;45115;52.002;4.686;2023-07-31T11:20:37;6.68;;;4.40;;
59336;SDS011;45115;52.002;4.686;2023-07-31T11:23:07;8.45;;;4.45;;
59336;SDS011;45115;52.002;4.686;2023-07-31T11:25:35;12.13;;;5.13;;
59336;SDS011;45115;52.002;4.686;2023-07-31T11:28:03;9.73;;;4.68;;
59336;SDS011;45115;52.002;4.686;2023-07-31T11:30:31;9.00;;;4.93;;
59336;SDS011;45115;52.002;4.686;2023-07-31T11:32:57;11.18;;;5.40;;
59336;SDS011;45115;52.002;4.686;2023-07-31T11:35:24;10.60;;;5.22;;
59336;SDS011;45115;52.002;4.686;2023-07-31T11:37:51;10.85;;;5.63;;
59336;SDS011;45115;52.002;4.686;2023-07-31T11:40:19;11.45;;;6.07;;
59336;SDS011;45115;52.002;4.686;2023-07-31T11:42:46;11.00;;;5.35;;
59336;SDS011;45115;52.002;4.686;2023-07-31T11:45:12;11.50;;;5.38;;
59336;SDS011;45115;52.002;4.686;2023-07-31T11:47:39;10.45;;;5.90;;
59336;SDS011;45115;52.002;4.686;2023-07-31T11:50:06;9.20;;;5.57;;
59336;SDS011;45115;52.002;4.686;2023-07-31T11:52:38;9.60;;;5.57;;
59336;SDS011;45115;52.002;4.686;2023-07-31T11:55:09;11.98;;;5.63;;
59336;SDS011;45115;52.002;4.686;2023-07-31T11:57:38;10.38;;;5.53;;
59336;SDS011;45115;52.002;4.686;2023-07-31T12:00:08;11.37;;;5.80;;
59336;SDS011;45115;52.002;4.686;2023-07-31T12:02:36;13.30;;;6.05;;
59336;SDS011;45115;52.002;4.686;2023-07-31T12:05:05;11.43;;;5.63;;
59336;SDS011;45115;52.002;4.686;2023-07-31T12:07:42;10.60;;;4.82;;
59336;SDS011;45115;52.002;4.686;2023-07-31T12:10:10;12.13;;;4.93;;
59336;SDS011;45115;52.002;4.686;2023-07-31T12:12:38;9.93;;;4.88;;
59336;SDS011;45115;52.002;4.686;2023-07-31T12:15:13;8.45;;;5.03;;
59336;SDS011;45115;52.002;4.686;2023-07-31T12:17:40;10.45;;;5.38;;
59336;SDS011;45115;52.002;4.686;2023-07-31T12:20:09;9.05;;;5.20;;
59336;SDS011;45115;52.002;4.686;2023-07-31T12:22:36;6.88;;;3.90;;
59336;SDS011;45115;52.002;4.686;2023-07-31T12:25:03;13.15;;;5.28;;
59336;SDS011;45115;52.002;4.686;2023-07-31T12:27:32;6.72;;;3.53;;
59336;SDS011;45115;52.002;4.686;2023-07-31T12:30:00;7.75;;;3.70;;
59336;SDS011;45115;52.002;4.686;2023-07-31T12:32:29;6.40;;;3.28;;
59336;SDS011;45115;52.002;4.686;2023-07-31T12:34:59;6.78;;;3.78;;
59336;SDS011;45115;52.002;4.686;2023-07-31T12:37:26;6.95;;;3.88;;
59336;SDS011;45115;52.002;4.686;2023-07-31T12:39:53;9.10;;;4.00;;
59336;SDS011;45115;52.002;4.686;2023-07-31T12:42:20;7.57;;;4.32;;
59336;SDS011;45115;52.002;4.686;2023-07-31T12:44:47;9.98;;;4.65;;
59336;SDS011;45115;52.002;4.686;2023-07-31T12:47:15;9.52;;;4.47;;
59336;SDS011;45115;52.002;4.686;2023-07-31T12:49:41;8.68;;;4.13;;
59336;SDS011;45115;52.002;4.686;2023-07-31T12:52:08;11.45;;;4.00;;
59336;SDS011;45115;52.002;4.686;2023-07-31T12:54:35;7.07;;;4.07;;
59336;SDS011;45115;52.002;4.686;2023-07-31T12:57:01;6.95;;;3.80;;
59336;SDS011;45115;52.002;4.686;2023-07-31T12:59:28;6.38;;;3.88;;
59336;SDS011;45115;52.002;4.686;2023-07-31T13:01:54;7.20;;;3.42;;
59336;SDS011;45115;52.002;4.686;2023-07-31T13:04:22;7.32;;;3.83;;
59336;SDS011;45115;52.002;4.686;2023-07-31T13:06:49;6.53;;;3.30;;
59336;SDS011;45115;52.002;4.686;2023-07-31T13:09:16;4.28;;;3.03;;
59336;SDS011;45115;52.002;4.686;2023-07-31T13:11:42;4.25;;;2.58;;
59336;SDS011;45115;52.002;4.686;2023-07-31T13:14:09;3.88;;;2.13;;
59336;SDS011;45115;52.002;4.686;2023-07-31T13:16:36;5.60;;;2.22;;
59336;SDS011;45115;52.002;4.686;2023-07-31T13:19:02;4.10;;;2.70;;
59336;SDS011;45115;52.002;4.686;2023-07-31T13:21:31;3.17;;;2.50;;
59336;SDS011;45115;52.002;4.686;2023-07-31T13:23:58;3.75;;;2.40;;
59336;SDS011;45115;52.002;4.686;2023-07-31T13:26:25;3.13;;;2.53;;
59336;SDS011;45115;52.002;4.686;2023-07-31T13:28:52;4.18;;;2.45;;
59336;SDS011;45115;52.002;4.686;2023-07-31T13:31:19;2.22;;;1.92;;
59336;SDS011;45115;52.002;4.686;2023-07-31T13:33:45;2.88;;;1.73;;
59336;SDS011;45115;52.002;4.686;2023-07-31T13:36:12;1.73;;;1.50;;
59336;SDS011;45115;52.002;4.686;2023-07-31T13:38:40;2.63;;;2.00;;
59336;SDS011;45115;52.002;4.686;2023-07-31T13:41:07;3.30;;;1.90;;
59336;SDS011;45115;52.002;4.686;2023-07-31T13:43:34;2.33;;;1.95;;
59336;SDS011;45115;52.002;4.686;2023-07-31T13:46:01;2.90;;;2.20;;
59336;SDS011;45115;52.002;4.686;2023-07-31T13:48:31;2.97;;;1.98;;
59336;SDS011;45115;52.002;4.686;2023-07-31T13:50:58;2.15;;;1.98;;
59336;SDS011;45115;52.002;4.686;2023-07-31T13:53:25;2.40;;;2.20;;
59336;SDS011;45115;52.002;4.686;2023-07-31T13:55:53;1.85;;;1.75;;
59336;SDS011;45115;52.002;4.686;2023-07-31T13:58:20;2.28;;;1.88;;
59336;SDS011;45115;52.002;4.686;2023-07-31T14:00:46;3.97;;;1.90;;
59336;SDS011;45115;52.002;4.686;2023-07-31T14:03:13;1.48;;;1.33;;
59336;SDS011;45115;52.002;4.686;2023-07-31T14:05:39;3.20;;;2.17;;
59336;SDS011;45115;52.002;4.686;2023-07-31T14:08:06;1.63;;;1.52;;
59336;SDS011;45115;52.002;4.686;2023-07-31T14:10:33;1.90;;;1.65;;
59336;SDS011;45115;52.002;4.686;2023-07-31T14:13:01;1.60;;;1.50;;
59336;SDS011;45115;52.002;4.686;2023-07-31T14:15:28;1.70;;;1.60;;
59336;SDS011;45115;52.002;4.686;2023-07-31T14:17:54;2.40;;;1.83;;
59336;SDS011;45115;52.002;4.686;2023-07-31T14:20:21;2.50;;;1.90;;
59336;SDS011;45115;52.002;4.686;2023-07-31T14:22:47;1.77;;;1.67;;
59336;SDS011;45115;52.002;4.686;2023-07-31T14:25:14;1.65;;;1.55;;
59336;SDS011;45115;52.002;4.686;2023-07-31T14:27:41;1.90;;;1.70;;
59336;SDS011;45115;52.002;4.686;2023-07-31T14:30:09;2.08;;;1.45;;
59336;SDS011;45115;52.002;4.686;2023-07-31T14:32:36;2.00;;;1.67;;
59336;SDS011;45115;52.002;4.686;2023-07-31T14:35:03;2.85;;;2.05;;
59336;SDS011;45115;52.002;4.686;2023-07-31T14:37:36;4.53;;;3.17;;
59336;SDS011;45115;52.002;4.686;2023-07-31T14:40:04;4.53;;;3.03;;
59336;SDS011;45115;52.002;4.686;2023-07-31T14:42:31;4.72;;;2.80;;
59336;SDS011;45115;52.002;4.686;2023-07-31T14:44:58;5.53;;;3.10;;
59336;SDS011;45115;52.002;4.686;2023-07-31T14:47:25;3.70;;;2.97;;